Time;durP1;ratioP1;P1;durP2;ratioP2;P2;SDS_P1;SDS_P2;PMS_P1;PMS_P2;Temp;Humidity;BMP_temperature;BMP_pressure;BME280_temperature;BME280_humidity;BME280_pressure;Samples;Min_cycle;Max_cycle;Signal;HPM_P1;HPM_P2
2022/11/09 00:02:17;;;;;;;4.30;1.77;;;11.20;99.90;;;;;;5138707;27;20662;-52
2022/11/09 00:04:43;;;;;;;7.00;2.22;;;11.20;99.90;;;;;;5118881;27;20508;-50
2022/11/09 00:07:09;;;;;;;5.63;2.22;;;11.30;99.90;;;;;;5138231;27;20038;-46
2022/11/09 00:09:35;;;;;;;7.25;2.38;;;11.20;99.90;;;;;;5120698;27;20101;-49
2022/11/09 00:12:03;;;;;;;8.85;2.38;;;11.20;99.90;;;;;;5138559;27;20046;-52
2022/11/09 00:14:29;;;;;;;6.68;2.10;;;11.10;99.90;;;;;;5137722;27;20046;-47
2022/11/09 00:16:56;;;;;;;5.20;2.47;;;11.20;99.90;;;;;;5137380;27;20520;-51
2022/11/09 00:19:23;;;;;;;5.90;2.63;;;11.10;99.90;;;;;;5137534;27;20047;-49
2022/11/09 00:21:49;;;;;;;6.35;2.63;;;11.20;99.90;;;;;;5138362;27;20142;-49
2022/11/09 00:24:14;;;;;;;6.28;2.60;;;11.10;99.90;;;;;;5118987;27;20095;-48
2022/11/09 00:26:40;;;;;;;8.80;3.22;;;11.10;99.90;;;;;;5137301;27;20038;-51
2022/11/09 00:29:06;;;;;;;6.55;3.55;;;11.10;99.90;;;;;;5137988;27;20456;-43
2022/11/09 00:31:32;;;;;;;7.95;3.90;;;11.20;99.90;;;;;;5137899;27;20099;-54
2022/11/09 00:33:57;;;;;;;7.80;4.65;;;11.30;99.90;;;;;;5137098;27;20464;-49
2022/11/09 00:36:24;;;;;;;8.00;4.38;;;11.30;99.90;;;;;;5137186;27;20046;-52
2022/11/09 00:38:53;;;;;;;5.82;4.85;;;11.40;99.90;;;;;;5138359;27;20081;-53
2022/11/09 00:41:20;;;;;;;12.38;5.50;;;11.40;99.90;;;;;;5135056;27;20038;-52
2022/11/09 00:43:46;;;;;;;10.15;4.88;;;11.40;99.90;;;;;;5109382;27;20540;-52
2022/11/09 00:46:12;;;;;;;13.57;5.40;;;11.50;99.90;;;;;;5113729;27;20074;-58
2022/11/09 00:48:38;;;;;;;15.23;6.38;;;11.50;99.90;;;;;;5138132;27;20042;-46
2022/11/09 00:51:04;;;;;;;11.63;5.20;;;11.50;99.90;;;;;;5119027;27;20062;-53
2022/11/09 00:53:30;;;;;;;8.10;4.90;;;11.60;99.90;;;;;;5138311;27;20042;-50
2022/11/09 00:56:08;;;;;;;7.30;4.38;;;11.70;99.90;;;;;;5127312;27;20043;-49
2022/11/09 00:58:37;;;;;;;12.27;5.20;;;11.70;99.90;;;;;;5130344;27;20109;-44
2022/11/09 01:01:10;;;;;;;11.45;5.45;;;11.80;99.90;;;;;;5118515;27;20055;-47
2022/11/09 01:03:36;;;;;;;8.07;4.53;;;11.80;99.90;;;;;;5137256;27;20046;-53
2022/11/09 01:06:01;;;;;;;10.00;4.43;;;11.90;99.90;;;;;;5137006;27;20524;-52
2022/11/09 01:08:28;;;;;;;10.32;4.25;;;11.80;99.90;;;;;;5137031;27;20491;-49
2022/11/09 01:10:53;;;;;;;9.88;4.43;;;11.90;99.90;;;;;;5136760;27;20117;-56
2022/11/09 01:13:19;;;;;;;11.93;5.55;;;11.90;99.90;;;;;;5136839;27;20129;-47
2022/11/09 01:15:50;;;;;;;7.70;4.80;;;11.90;99.90;;;;;;5136516;27;20049;-55
2022/11/09 01:18:17;;;;;;;9.45;3.45;;;11.90;99.90;;;;;;5136827;27;20042;-51
2022/11/09 01:20:45;;;;;;;8.93;3.45;;;11.90;99.90;;;;;;5136606;27;20061;-48
2022/11/09 01:23:12;;;;;;;5.90;3.70;;;11.80;99.90;;;;;;5136187;27;20507;-53
2022/11/09 01:25:38;;;;;;;8.38;4.70;;;11.80;99.90;;;;;;5136626;27;20484;-47
2022/11/09 01:28:05;;;;;;;13.48;5.10;;;11.70;99.90;;;;;;5135306;27;20042;-54
2022/11/09 01:30:34;;;;;;;12.68;4.88;;;11.80;99.90;;;;;;5137015;27;20122;-51
2022/11/09 01:33:02;;;;;;;10.38;5.05;;;11.70;99.90;;;;;;5135880;27;20042;-50
2022/11/09 01:35:28;;;;;;;11.38;5.28;;;11.70;99.90;;;;;;5136679;27;20056;-49
2022/11/09 01:37:53;;;;;;;11.93;6.18;;;11.70;99.90;;;;;;5117307;27;20043;-46
2022/11/09 01:40:19;;;;;;;12.93;5.38;;;11.60;99.90;;;;;;5132783;27;20103;-51
2022/11/09 01:42:45;;;;;;;11.95;5.28;;;11.60;99.90;;;;;;5135139;27;20521;-48
2022/11/09 01:45:16;;;;;;;10.55;5.15;;;11.60;99.90;;;;;;5136951;27;20361;-52
2022/11/09 01:47:46;;;;;;;10.90;6.18;;;11.60;99.90;;;;;;5136313;27;20154;-52
2022/11/09 01:50:14;;;;;;;17.42;7.00;;;11.60;99.90;;;;;;5117994;27;20480;-49
2022/11/09 01:52:45;;;;;;;15.93;5.57;;;11.50;99.90;;;;;;5136549;27;20039;-44
2022/11/09 01:55:14;;;;;;;11.95;5.22;;;11.40;99.90;;;;;;5137749;27;20386;-51
2022/11/09 01:58:14;;;;;;;14.85;5.70;;;11.40;99.90;;;;;;5136728;27;20035;-54
2022/11/09 02:00:43;;;;;;;10.70;5.15;;;11.40;99.90;;;;;;5132049;27;20130;-46
2022/11/09 02:03:17;;;;;;;10.68;4.30;;;11.30;99.90;;;;;;5136821;27;20514;-45
2022/11/09 02:05:44;;;;;;;12.02;4.30;;;11.30;99.90;;;;;;5136616;27;20205;-47
2022/11/09 02:08:14;;;;;;;12.23;4.68;;;11.30;99.90;;;;;;5136486;27;20047;-52
2022/11/09 02:11:01;;;;;;;12.02;4.57;;;11.30;99.90;;;;;;5136349;27;20171;-54
2022/11/09 02:13:29;;;;;;;11.23;4.22;;;11.30;99.90;;;;;;5136427;27;20078;-51
2022/11/09 02:15:55;;;;;;;11.60;5.25;;;11.30;99.90;;;;;;5130007;27;20101;-56
2022/11/09 02:18:20;;;;;;;13.77;4.70;;;11.20;99.90;;;;;;5111363;27;20046;-55
2022/11/09 02:20:52;;;;;;;12.13;4.90;;;11.30;99.90;;;;;;5136812;27;20812;-49
2022/11/09 02:23:19;;;;;;;17.60;4.78;;;11.20;99.90;;;;;;5136536;27;20435;-44
2022/11/09 02:25:59;;;;;;;8.70;3.80;;;11.20;99.90;;;;;;5136913;27;20050;-51
2022/11/09 02:28:27;;;;;;;6.78;4.15;;;11.10;99.90;;;;;;5136928;27;20085;-50
2022/11/09 02:30:55;;;;;;;8.15;4.07;;;11.20;99.90;;;;;;5136792;27;20513;-42
2022/11/09 02:33:21;;;;;;;9.00;4.00;;;11.10;99.90;;;;;;5136050;27;20119;-53
2022/11/09 02:35:47;;;;;;;16.45;5.32;;;11.10;99.90;;;;;;5136209;27;20388;-49
2022/11/09 02:38:13;;;;;;;11.85;4.35;;;11.20;99.90;;;;;;5136232;27;20053;-47
2022/11/09 02:40:43;;;;;;;11.00;4.28;;;11.10;99.90;;;;;;5114669;27;20577;-43
2022/11/09 02:43:10;;;;;;;11.02;3.78;;;11.20;99.90;;;;;;5135214;27;20889;-50
2022/11/09 02:45:37;;;;;;;10.00;4.00;;;11.10;99.90;;;;;;5136254;27;20050;-56
2022/11/09 02:48:03;;;;;;;9.48;3.85;;;11.20;99.90;;;;;;5135620;27;20125;-45
2022/11/09 02:50:29;;;;;;;11.20;3.60;;;11.20;99.90;;;;;;5118329;27;20180;-57
2022/11/09 02:52:54;;;;;;;13.50;4.13;;;11.20;99.90;;;;;;5118736;27;20043;-46
2022/11/09 02:55:20;;;;;;;8.63;3.83;;;11.20;99.90;;;;;;5140213;27;20531;-55
2022/11/09 02:57:45;;;;;;;17.92;4.53;;;11.10;99.90;;;;;;5140180;27;20034;-49
2022/11/09 03:00:11;;;;;;;13.98;3.72;;;11.10;99.90;;;;;;5122374;27;20046;-59
2022/11/09 03:02:37;;;;;;;12.35;3.60;;;11.10;99.90;;;;;;5135702;27;20043;-52
2022/11/09 03:05:03;;;;;;;12.50;3.95;;;11.10;99.90;;;;;;5120361;27;20042;-44
2022/11/09 03:07:29;;;;;;;9.13;3.92;;;11.10;99.90;;;;;;5137822;27;20384;-52
2022/11/09 03:09:54;;;;;;;12.60;4.15;;;11.10;99.90;;;;;;5139819;27;20375;-51
2022/11/09 03:12:29;;;;;;;15.75;4.15;;;11.10;99.90;;;;;;5120397;27;20441;-57
2022/11/09 03:14:59;;;;;;;14.32;3.80;;;11.10;99.90;;;;;;5139573;27;20042;-54
2022/11/09 03:17:25;;;;;;;17.05;3.63;;;11.00;99.90;;;;;;5139056;27;20361;-47
2022/11/09 03:19:51;;;;;;;15.13;3.55;;;11.00;99.90;;;;;;5139516;27;20742;-52
2022/11/09 03:22:18;;;;;;;11.20;3.30;;;11.10;99.90;;;;;;5125090;27;20038;-52
2022/11/09 03:24:43;;;;;;;11.07;4.18;;;11.00;99.90;;;;;;5138251;27;20402;-55
2022/11/09 03:27:09;;;;;;;10.95;3.22;;;11.10;99.90;;;;;;5138834;27;20035;-45
2022/11/09 03:29:35;;;;;;;12.77;3.25;;;11.10;99.90;;;;;;5139153;27;20758;-50
2022/11/09 03:32:01;;;;;;;12.40;3.80;;;11.10;99.90;;;;;;5139526;27;20039;-53
2022/11/09 03:34:26;;;;;;;12.82;3.60;;;11.00;99.90;;;;;;5138461;27;20531;-53
2022/11/09 03:36:52;;;;;;;13.05;2.85;;;11.00;99.90;;;;;;5105842;27;20559;-53
2022/11/09 03:39:18;;;;;;;14.52;3.65;;;11.00;99.90;;;;;;5139098;27;20597;-46
2022/11/09 03:41:43;;;;;;;11.35;2.78;;;11.00;99.90;;;;;;5128379;27;20049;-48
2022/11/09 03:44:09;;;;;;;13.05;4.20;;;10.90;99.90;;;;;;5138698;27;20070;-51
2022/11/09 03:46:34;;;;;;;12.95;3.28;;;11.10;99.90;;;;;;5138464;27;20103;-43
2022/11/09 03:49:00;;;;;;;15.38;3.33;;;11.00;99.90;;;;;;5138832;27;20327;-45
2022/11/09 03:51:26;;;;;;;11.32;3.15;;;11.00;99.90;;;;;;5139486;27;20059;-48
2022/11/09 03:53:51;;;;;;;12.63;3.42;;;11.00;99.90;;;;;;5118632;27;20423;-47
2022/11/09 03:56:17;;;;;;;11.07;3.28;;;11.00;99.90;;;;;;5137967;27;20447;-53
2022/11/09 03:58:43;;;;;;;13.55;3.90;;;11.00;99.90;;;;;;5138322;27;20108;-52
2022/11/09 04:01:09;;;;;;;15.95;3.80;;;11.10;99.90;;;;;;5138667;27;20088;-49
2022/11/09 04:03:35;;;;;;;9.60;2.63;;;11.10;99.90;;;;;;5117817;27;20103;-51
2022/11/09 04:06:01;;;;;;;15.00;3.25;;;11.00;99.90;;;;;;5119024;27;20051;-53
2022/11/09 04:08:27;;;;;;;13.23;3.70;;;11.00;99.90;;;;;;5119400;27;20050;-49
2022/11/09 04:10:53;;;;;;;10.00;3.40;;;10.90;99.90;;;;;;5138829;27;20491;-50
2022/11/09 04:13:19;;;;;;;9.88;3.13;;;11.00;99.90;;;;;;5138033;27;20047;-45
2022/11/09 04:15:44;;;;;;;11.15;3.35;;;10.90;99.90;;;;;;5102108;27;20350;-57
2022/11/09 04:18:12;;;;;;;12.73;3.60;;;10.80;99.90;;;;;;5138039;27;20374;-46
2022/11/09 04:20:39;;;;;;;12.02;3.08;;;10.80;99.90;;;;;;5138878;27;20050;-57
2022/11/09 04:23:06;;;;;;;12.75;3.55;;;10.80;99.90;;;;;;5137044;27;20057;-43
2022/11/09 04:25:34;;;;;;;12.43;2.70;;;10.90;99.90;;;;;;5138236;27;20396;-52
2022/11/09 04:28:01;;;;;;;11.02;3.58;;;10.90;99.90;;;;;;5118300;27;20502;-53
2022/11/09 04:30:29;;;;;;;13.10;2.92;;;10.90;99.90;;;;;;5138118;27;20589;-52
2022/11/09 04:32:56;;;;;;;11.50;3.00;;;11.00;99.90;;;;;;5119022;27;20479;-47
2022/11/09 04:35:23;;;;;;;12.63;3.53;;;11.00;99.90;;;;;;5138658;27;20043;-49
2022/11/09 04:37:55;;;;;;;12.15;4.22;;;11.00;99.90;;;;;;5137361;27;20556;-55
2022/11/09 04:40:22;;;;;;;10.38;3.50;;;11.10;99.90;;;;;;5115896;27;20045;-50
2022/11/09 04:42:48;;;;;;;14.13;3.42;;;11.10;99.90;;;;;;5137792;27;20038;-49
2022/11/09 04:45:14;;;;;;;15.63;3.58;;;11.10;99.90;;;;;;5137775;27;20065;-49
2022/11/09 04:47:39;;;;;;;13.00;3.67;;;11.10;99.90;;;;;;5137628;27;20492;-42
2022/11/09 04:50:06;;;;;;;15.13;3.97;;;11.10;99.90;;;;;;5137649;27;20178;-47
2022/11/09 04:52:31;;;;;;;15.70;3.60;;;11.00;99.90;;;;;;5118094;27;20384;-57
2022/11/09 04:54:57;;;;;;;11.00;3.60;;;11.00;99.90;;;;;;5137527;27;20108;-59
2022/11/09 04:57:22;;;;;;;16.75;3.67;;;11.00;99.90;;;;;;5136807;27;20078;-44
2022/11/09 04:59:48;;;;;;;14.93;3.88;;;11.00;99.90;;;;;;5137275;27;20052;-56
2022/11/09 05:02:14;;;;;;;18.65;3.90;;;10.90;99.90;;;;;;5136878;27;20054;-45
2022/11/09 05:04:40;;;;;;;17.85;3.63;;;10.90;99.90;;;;;;5137191;27;20142;-47
2022/11/09 05:07:05;;;;;;;15.52;3.42;;;11.00;99.90;;;;;;5135080;27;20042;-45
2022/11/09 05:09:31;;;;;;;12.75;3.95;;;11.00;99.90;;;;;;5131549;27;20331;-53
2022/11/09 05:11:56;;;;;;;9.82;3.05;;;11.00;99.90;;;;;;5137084;27;20460;-51
2022/11/09 05:14:22;;;;;;;14.90;4.00;;;11.00;99.90;;;;;;5137032;27;20054;-50
2022/11/09 05:16:48;;;;;;;9.63;3.00;;;11.10;99.90;;;;;;5135658;27;20142;-48
2022/11/09 05:19:13;;;;;;;12.95;4.18;;;11.10;99.90;;;;;;5136930;27;20591;-49
2022/11/09 05:21:39;;;;;;;12.55;3.60;;;11.00;99.90;;;;;;5137473;27;20039;-50
2022/11/09 05:24:05;;;;;;;12.65;3.75;;;11.10;99.90;;;;;;5117845;27;20055;-49
2022/11/09 05:26:33;;;;;;;16.58;3.65;;;11.00;99.90;;;;;;5117810;27;20163;-50
2022/11/09 05:29:01;;;;;;;11.40;3.22;;;11.00;99.90;;;;;;5136691;27;20046;-50
2022/11/09 05:31:28;;;;;;;16.25;3.63;;;11.00;99.90;;;;;;5136971;27;20142;-54
2022/11/09 05:33:54;;;;;;;12.95;3.65;;;11.10;99.90;;;;;;5136528;27;20034;-47
2022/11/09 05:36:20;;;;;;;14.07;3.67;;;11.10;99.90;;;;;;5135924;27;20090;-53
2022/11/09 05:38:46;;;;;;;15.13;4.45;;;11.10;99.90;;;;;;5136900;27;20376;-53
2022/11/09 05:41:12;;;;;;;11.25;3.67;;;11.10;99.90;;;;;;5132378;27;20487;-54
2022/11/09 05:43:38;;;;;;;13.02;3.55;;;11.10;99.90;;;;;;5137019;27;20046;-48
2022/11/09 05:46:04;;;;;;;9.68;3.28;;;11.00;99.90;;;;;;5117051;27;20050;-45
2022/11/09 05:48:30;;;;;;;10.90;2.90;;;11.00;99.90;;;;;;5137079;27;20045;-47
2022/11/09 05:51:00;;;;;;;14.20;4.30;;;11.00;99.90;;;;;;5137828;27;20055;-53
2022/11/09 05:53:26;;;;;;;13.18;3.58;;;11.00;99.90;;;;;;5119197;27;20145;-44
2022/11/09 05:55:52;;;;;;;21.40;4.18;;;10.80;99.90;;;;;;5136073;27;20039;-50
2022/11/09 05:58:18;;;;;;;14.32;3.50;;;10.90;99.90;;;;;;5118483;27;20047;-54
2022/11/09 06:00:43;;;;;;;12.50;3.00;;;10.80;99.90;;;;;;5118058;27;20034;-50
2022/11/09 06:03:10;;;;;;;15.05;4.30;;;10.90;99.90;;;;;;5135835;27;20336;-48
2022/11/09 06:05:37;;;;;;;10.45;2.83;;;10.70;99.90;;;;;;5136134;27;20053;-52
2022/11/09 06:08:04;;;;;;;14.13;4.00;;;10.80;99.90;;;;;;5136463;27;20170;-48
2022/11/09 06:10:30;;;;;;;13.73;3.50;;;10.80;99.90;;;;;;5135779;27;20050;-46
2022/11/09 06:12:56;;;;;;;10.55;3.85;;;10.80;99.90;;;;;;5136235;27;20386;-50
2022/11/09 06:15:23;;;;;;;15.43;3.20;;;10.70;99.90;;;;;;5136345;27;20423;-43
2022/11/09 06:17:52;;;;;;;13.77;3.72;;;10.80;99.90;;;;;;5136086;27;20039;-56
2022/11/09 06:20:18;;;;;;;15.45;3.83;;;10.80;99.90;;;;;;5117759;27;20378;-51
2022/11/09 06:22:44;;;;;;;15.32;3.65;;;10.80;99.90;;;;;;5127545;27;20074;-52
2022/11/09 06:25:09;;;;;;;11.25;3.42;;;10.90;99.90;;;;;;5113789;28;20569;-44
2022/11/09 06:27:35;;;;;;;10.38;2.83;;;10.90;99.90;;;;;;5127173;27;20034;-49
2022/11/09 06:30:01;;;;;;;15.27;4.45;;;10.90;99.90;;;;;;5140038;27;20042;-50
2022/11/09 06:32:27;;;;;;;8.98;3.00;;;10.80;99.90;;;;;;5121547;27;20050;-48
2022/11/09 06:34:53;;;;;;;12.70;3.10;;;10.90;99.90;;;;;;5121616;27;20544;-49
2022/11/09 06:37:18;;;;;;;12.60;3.38;;;10.80;99.90;;;;;;5129415;27;20043;-55
2022/11/09 06:39:46;;;;;;;12.13;3.15;;;10.80;99.90;;;;;;5134096;27;20119;-46
2022/11/09 06:42:11;;;;;;;8.98;2.90;;;10.70;99.90;;;;;;5139308;27;20391;-52
2022/11/09 06:44:37;;;;;;;12.55;4.00;;;10.70;99.90;;;;;;5121897;27;20068;-53
2022/11/09 06:47:03;;;;;;;9.70;3.47;;;10.70;99.90;;;;;;5139922;27;20834;-51
2022/11/09 06:49:28;;;;;;;9.80;3.40;;;10.60;99.90;;;;;;5120773;27;20062;-58
2022/11/09 06:51:54;;;;;;;14.10;3.55;;;10.70;99.90;;;;;;5140007;27;20133;-46
2022/11/09 06:54:20;;;;;;;15.18;3.50;;;10.60;99.90;;;;;;5139117;27;20479;-56
2022/11/09 06:56:45;;;;;;;12.02;4.38;;;10.50;99.90;;;;;;5139543;27;20039;-48
2022/11/09 06:59:11;;;;;;;10.55;3.03;;;10.50;99.90;;;;;;5139475;27;20050;-51
2022/11/09 07:01:36;;;;;;;11.65;3.20;;;10.50;99.90;;;;;;5120935;27;20055;-47
2022/11/09 07:04:02;;;;;;;11.60;3.13;;;10.50;99.90;;;;;;5119965;27;20061;-50
2022/11/09 07:06:28;;;;;;;12.02;2.90;;;10.50;99.90;;;;;;5121011;27;20042;-54
2022/11/09 07:08:55;;;;;;;10.93;3.28;;;10.40;99.90;;;;;;5140074;27;20050;-52
2022/11/09 07:11:20;;;;;;;12.50;2.80;;;10.40;99.90;;;;;;5139785;27;20135;-55
2022/11/09 07:13:47;;;;;;;13.32;3.05;;;10.40;99.90;;;;;;5120534;27;20137;-52
2022/11/09 07:16:16;;;;;;;13.70;3.97;;;10.50;99.90;;;;;;5139660;27;20141;-43
2022/11/09 07:18:44;;;;;;;12.55;3.60;;;10.40;99.90;;;;;;5139693;27;20470;-58
2022/11/09 07:21:10;;;;;;;14.77;3.45;;;10.40;99.90;;;;;;5139732;27;20516;-52
2022/11/09 07:23:35;;;;;;;13.25;3.10;;;10.50;99.90;;;;;;5139137;27;20054;-51
2022/11/09 07:26:01;;;;;;;10.82;3.05;;;10.50;99.90;;;;;;5138668;27;20674;-46
2022/11/09 07:28:27;;;;;;;14.32;3.65;;;10.50;99.90;;;;;;5120446;27;20046;-45
2022/11/09 07:30:52;;;;;;;9.82;2.45;;;10.40;99.90;;;;;;5139352;27;20087;-49
2022/11/09 07:33:19;;;;;;;14.38;3.47;;;10.50;99.90;;;;;;5138729;27;20418;-44
2022/11/09 07:35:45;;;;;;;14.77;3.92;;;10.50;99.90;;;;;;5139557;27;20042;-51
2022/11/09 07:38:12;;;;;;;13.10;3.17;;;10.50;99.90;;;;;;5138818;27;20034;-50
2022/11/09 07:40:38;;;;;;;14.32;3.53;;;10.50;99.90;;;;;;5134470;27;20171;-50
2022/11/09 07:43:05;;;;;;;13.00;3.50;;;10.50;99.90;;;;;;5138171;27;20054;-53
2022/11/09 07:45:32;;;;;;;13.00;3.40;;;10.60;99.90;;;;;;5139203;27;20043;-52
2022/11/09 07:48:02;;;;;;;11.23;3.10;;;10.60;99.90;;;;;;5139124;27;20047;-49
2022/11/09 07:50:29;;;;;;;17.23;4.05;;;10.60;99.90;;;;;;5120988;27;20090;-52
2022/11/09 07:52:56;;;;;;;16.13;3.95;;;10.60;99.90;;;;;;5138708;27;20377;-54
2022/11/09 07:55:23;;;;;;;11.80;3.63;;;10.70;99.90;;;;;;5138606;27;20387;-55
2022/11/09 07:57:53;;;;;;;14.18;2.78;;;10.60;99.90;;;;;;5138829;27;20031;-52
2022/11/09 08:00:19;;;;;;;14.23;3.95;;;10.70;99.90;;;;;;5139255;27;20436;-52
2022/11/09 08:02:48;;;;;;;14.05;3.38;;;10.80;99.90;;;;;;5137997;27;20051;-53
2022/11/09 08:05:14;;;;;;;14.25;3.35;;;10.80;99.90;;;;;;5119903;27;20074;-51
2022/11/09 08:07:39;;;;;;;14.73;3.40;;;10.80;99.90;;;;;;5137167;27;20131;-57
2022/11/09 08:10:06;;;;;;;15.68;4.18;;;10.90;99.90;;;;;;5137933;27;20454;-53
2022/11/09 08:12:31;;;;;;;16.02;3.38;;;10.90;99.90;;;;;;5135293;27;20559;-61
2022/11/09 08:14:57;;;;;;;10.63;3.13;;;10.90;99.90;;;;;;5120441;27;20441;-44
2022/11/09 08:17:22;;;;;;;10.50;3.20;;;10.90;99.90;;;;;;5137437;27;20042;-46
2022/11/09 08:19:48;;;;;;;13.80;2.92;;;11.00;99.90;;;;;;5138503;27;20441;-49
2022/11/09 08:22:14;;;;;;;14.80;3.35;;;11.00;99.90;;;;;;5137879;27;20043;-47
2022/11/09 08:24:39;;;;;;;13.48;3.35;;;11.10;99.90;;;;;;5138806;27;20972;-57
2022/11/09 08:27:05;;;;;;;16.58;4.45;;;11.10;99.90;;;;;;5119172;27;20053;-52
2022/11/09 08:29:31;;;;;;;11.45;3.58;;;11.20;99.90;;;;;;5138310;27;20038;-50
2022/11/09 08:31:57;;;;;;;13.05;3.13;;;11.20;99.90;;;;;;5137882;27;20142;-48
2022/11/09 08:34:23;;;;;;;12.90;3.63;;;11.30;99.90;;;;;;5119909;27;20452;-50
2022/11/09 08:36:49;;;;;;;17.42;4.18;;;11.30;99.90;;;;;;5137566;27;20043;-50
2022/11/09 08:39:14;;;;;;;14.23;3.20;;;11.30;99.90;;;;;;5118917;27;20129;-56
2022/11/09 08:41:40;;;;;;;13.30;3.40;;;11.30;99.90;;;;;;5115414;27;20153;-54
2022/11/09 08:44:06;;;;;;;16.17;3.20;;;11.40;99.90;;;;;;5112366;27;20073;-53
2022/11/09 08:46:32;;;;;;;14.05;3.97;;;11.40;99.90;;;;;;5131087;27;20032;-53
2022/11/09 08:48:57;;;;;;;12.82;3.45;;;11.40;99.90;;;;;;5098839;27;20043;-51
2022/11/09 08:51:23;;;;;;;21.65;4.35;;;11.50;99.90;;;;;;5135318;27;20049;-45
2022/11/09 08:53:49;;;;;;;14.23;3.30;;;11.60;99.90;;;;;;5136574;27;20054;-53
2022/11/09 08:56:17;;;;;;;12.60;3.38;;;11.60;99.90;;;;;;5136493;27;20053;-45
2022/11/09 08:58:43;;;;;;;17.02;4.53;;;11.60;99.90;;;;;;5117894;27;20039;-53
2022/11/09 09:01:10;;;;;;;14.70;3.47;;;11.70;99.90;;;;;;5136821;27;20571;-57
2022/11/09 09:03:36;;;;;;;16.20;3.90;;;11.70;99.90;;;;;;5118509;27;20051;-57
2022/11/09 09:06:06;;;;;;;11.00;3.75;;;11.80;99.90;;;;;;5136769;27;20384;-52
2022/11/09 09:08:32;;;;;;;13.65;3.78;;;11.80;99.90;;;;;;5137364;27;20118;-49
2022/11/09 09:11:05;;;;;;;12.35;3.45;;;11.80;99.90;;;;;;5136477;27;20569;-52
2022/11/09 09:13:31;;;;;;;14.48;4.45;;;11.80;99.90;;;;;;5135671;27;20046;-44
2022/11/09 09:15:57;;;;;;;16.67;4.28;;;11.80;99.90;;;;;;5133600;27;20499;-45
2022/11/09 09:18:23;;;;;;;16.25;3.70;;;11.80;99.90;;;;;;5137119;27;20455;-43
2022/11/09 09:20:49;;;;;;;12.50;3.28;;;11.90;99.90;;;;;;5137191;27;20039;-55
2022/11/09 09:23:15;;;;;;;16.48;4.45;;;11.90;99.90;;;;;;5136913;27;20456;-48
2022/11/09 09:25:42;;;;;;;10.90;3.28;;;11.90;99.90;;;;;;5136973;27;20475;-56
2022/11/09 09:28:08;;;;;;;13.80;3.70;;;11.90;99.90;;;;;;5137788;27;20079;-43
2022/11/09 09:30:34;;;;;;;14.02;4.00;;;11.90;99.90;;;;;;5118790;27;20043;-46
2022/11/09 09:33:00;;;;;;;14.15;3.83;;;12.00;99.90;;;;;;5124178;27;20042;-44
2022/11/09 09:35:27;;;;;;;14.27;3.70;;;12.10;99.90;;;;;;5119002;27;20388;-47
2022/11/09 09:37:53;;;;;;;10.80;3.45;;;12.00;99.90;;;;;;5126839;27;20049;-52
2022/11/09 09:40:28;;;;;;;12.82;4.80;;;12.10;99.90;;;;;;5118886;27;20038;-49
2022/11/09 09:42:55;;;;;;;11.07;4.00;;;12.10;99.90;;;;;;5132092;27;20059;-50
2022/11/09 09:45:25;;;;;;;15.45;4.10;;;12.10;99.90;;;;;;5135875;27;20483;-52
2022/11/09 09:48:10;;;;;;;13.30;4.32;;;12.10;99.90;;;;;;5135356;27;20050;-51
2022/11/09 09:50:51;;;;;;;15.93;4.75;;;12.20;99.90;;;;;;5136744;27;20138;-53
2022/11/09 09:53:42;;;;;;;16.05;4.70;;;12.20;99.90;;;;;;5117662;27;20059;-47
2022/11/09 09:56:14;;;;;;;16.65;4.05;;;12.20;99.90;;;;;;5137067;27;20046;-49
2022/11/09 09:59:01;;;;;;;14.57;4.73;;;12.30;99.90;;;;;;5133041;27;20157;-49
2022/11/09 10:01:37;;;;;;;12.27;4.38;;;12.30;99.90;;;;;;5117944;27;20046;-46
2022/11/09 10:04:07;;;;;;;13.93;4.18;;;12.40;99.90;;;;;;5149367;27;20046;-56
2022/11/09 10:06:39;;;;;;;15.82;5.40;;;12.50;99.90;;;;;;5142650;27;20051;-52
2022/11/09 10:09:35;;;;;;;11.57;4.50;;;12.60;99.90;;;;;;5141624;27;20130;-46
2022/11/09 10:12:17;;;;;;;11.80;4.93;;;12.60;99.90;;;;;;5124062;27;20055;-53
2022/11/09 10:15:10;;;;;;;17.20;5.63;;;12.70;99.90;;;;;;5143831;27;20046;-52
2022/11/09 10:17:47;;;;;;;21.48;5.28;;;12.70;99.90;;;;;;5130467;27;20849;-51
2022/11/09 10:20:27;;;;;;;13.15;4.53;;;12.70;99.90;;;;;;5123746;27;20462;-51
2022/11/09 10:23:38;;;;;;;11.50;4.88;;;12.70;99.90;;;;;;5123924;27;20047;-53
2022/11/09 10:26:16;;;;;;;18.08;5.30;;;12.60;99.90;;;;;;5098887;27;20046;-51
2022/11/09 10:28:45;;;;;;;14.23;4.28;;;12.60;99.90;;;;;;5142261;27;20369;-56
2022/11/09 10:31:17;;;;;;;18.58;5.18;;;12.70;99.90;;;;;;5142796;27;20042;-53
2022/11/09 10:33:55;;;;;;;16.58;5.88;;;12.80;99.90;;;;;;5124342;27;20047;-49
2022/11/09 10:36:40;;;;;;;14.75;4.70;;;12.90;99.90;;;;;;5142130;27;20119;-52
2022/11/09 10:39:11;;;;;;;14.75;5.43;;;12.90;99.90;;;;;;5143055;27;20070;-45
2022/11/09 10:41:38;;;;;;;14.68;5.22;;;12.90;99.90;;;;;;5138983;27;20111;-50
2022/11/09 10:44:08;;;;;;;17.60;5.15;;;12.90;99.90;;;;;;5123930;27;20069;-53
2022/11/09 10:47:21;;;;;;;18.52;5.22;;;13.00;99.90;;;;;;5142092;27;20674;-44
2022/11/09 10:50:24;;;;;;;11.80;4.65;;;12.90;99.90;;;;;;5140413;27;20051;-49
2022/11/09 10:52:50;;;;;;;14.82;5.05;;;13.00;99.90;;;;;;5141818;27;20054;-58
2022/11/09 10:55:26;;;;;;;16.75;5.10;;;13.00;99.90;;;;;;5142630;27;20080;-44
2022/11/09 10:58:01;;;;;;;12.25;4.40;;;12.90;99.90;;;;;;5142888;27;20629;-52
2022/11/09 11:00:27;;;;;;;17.75;5.00;;;12.80;99.90;;;;;;5143750;27;20779;-45
2022/11/09 11:02:54;;;;;;;11.88;4.15;;;12.80;99.90;;;;;;5142469;27;20399;-45
2022/11/09 11:05:26;;;;;;;15.18;4.38;;;12.80;99.90;;;;;;5123833;27;20054;-60
2022/11/09 11:07:52;;;;;;;13.60;4.85;;;12.70;99.90;;;;;;5131555;27;20708;-53
2022/11/09 11:10:21;;;;;;;16.92;4.78;;;12.70;99.90;;;;;;5124359;27;20107;-53
2022/11/09 11:12:58;;;;;;;14.85;4.20;;;12.70;99.90;;;;;;5142751;27;20046;-51
2022/11/09 11:15:32;;;;;;;12.85;4.13;;;12.70;99.90;;;;;;5120701;27;20141;-54
2022/11/09 11:18:17;;;;;;;17.83;5.00;;;12.70;99.90;;;;;;5139500;27;20121;-55
2022/11/09 11:20:42;;;;;;;15.07;4.30;;;12.70;99.90;;;;;;5127613;27;20372;-50
2022/11/09 11:23:13;;;;;;;16.83;4.93;;;12.70;99.90;;;;;;5139364;27;20196;-47
2022/11/09 11:25:56;;;;;;;15.85;5.50;;;12.70;99.90;;;;;;5139734;27;20518;-46
2022/11/09 11:28:27;;;;;;;;;;;12.80;99.90;;;;;;5139662;27;20046;-53
2022/11/09 11:30:53;;;;;;;13.05;3.90;;;12.90;99.90;;;;;;5139363;27;19929;-51
2022/11/09 11:33:20;;;;;;;15.43;5.28;;;12.90;99.90;;;;;;5138359;27;20047;-54
2022/11/09 11:35:46;;;;;;;13.18;5.30;;;13.00;99.90;;;;;;5120475;27;20049;-54
2022/11/09 11:38:53;;;;;;;14.70;4.85;;;12.90;99.90;;;;;;5139287;27;20043;-51
2022/11/09 11:41:40;;;;;;;14.05;5.00;;;12.90;99.90;;;;;;5034631;28;20060;-54
2022/11/09 11:44:47;;;;;;;16.67;5.55;;;13.00;99.90;;;;;;5034952;28;20116;-42
2022/11/09 11:47:27;;;;;;;11.52;4.80;;;13.00;99.90;;;;;;4974848;28;20121;-48
2022/11/09 11:50:01;;;;;;;13.38;4.40;;;12.90;99.90;;;;;;4975180;28;20047;-46
2022/11/09 11:53:16;;;;;;;13.57;4.93;;;12.90;99.90;;;;;;4972813;28;20438;-47
2022/11/09 11:55:44;;;;;;;;;;;12.90;99.90;;;;;;4918028;29;20056;-56
2022/11/09 11:58:48;;;;;;;16.63;4.28;;;12.80;99.90;;;;;;4917921;29;20009;-47
2022/11/09 12:01:24;;;;;;;13.45;4.68;;;12.80;99.90;;;;;;4915102;29;20071;-52
2022/11/09 12:04:15;;;;;;;14.88;5.03;;;12.90;99.90;;;;;;4915354;29;20553;-54
2022/11/09 12:06:57;;;;;;;13.10;4.47;;;12.90;99.90;;;;;;4903785;29;20044;-50
2022/11/09 12:09:48;;;;;;;16.33;4.80;;;13.00;99.90;;;;;;4914775;29;20052;-46
2022/11/09 12:12:35;;;;;;;11.50;4.38;;;13.00;99.90;;;;;;4915646;29;20536;-53
2022/11/09 12:15:22;;;;;;;15.45;4.45;;;13.10;99.90;;;;;;4915664;29;20047;-43
2022/11/09 12:18:05;;;;;;;17.95;4.82;;;13.20;99.90;;;;;;4949653;28;20066;-46
2022/11/09 12:21:11;;;;;;;17.83;4.63;;;13.20;99.90;;;;;;4979863;28;20056;-43
2022/11/09 12:23:57;;;;;;;17.08;4.50;;;13.20;99.90;;;;;;4977851;28;20075;-50
2022/11/09 12:26:50;;;;;;;9.70;3.90;;;13.20;99.90;;;;;;5014648;28;20643;-50
2022/11/09 12:29:22;;;;;;;11.07;3.28;;;13.20;99.90;;;;;;5033349;28;20115;-44
2022/11/09 12:32:10;;;;;;;11.55;3.40;;;13.10;99.90;;;;;;5068232;27;20051;-47
2022/11/09 12:34:45;;;;;;;9.95;3.40;;;13.10;99.90;;;;;;5138074;27;20446;-50
2022/11/09 12:37:19;;;;;;;8.25;3.13;;;13.00;99.90;;;;;;5137791;27;20046;-43
2022/11/09 12:39:47;;;;;;;8.50;3.03;;;13.00;99.90;;;;;;5116707;27;20123;-43
2022/11/09 12:42:42;;;;;;;8.25;3.30;;;12.90;99.90;;;;;;5137613;27;20043;-44
2022/11/09 12:45:22;;;;;;;9.05;2.42;;;12.80;99.90;;;;;;5138166;27;20388;-51
2022/11/09 12:47:48;;;;;;;7.93;3.35;;;12.80;99.90;;;;;;5119952;27;20480;-52
2022/11/09 12:50:17;;;;;;;6.68;2.40;;;12.70;99.90;;;;;;5137743;27;20346;-43
2022/11/09 12:52:46;;;;;;;9.57;2.55;;;12.60;99.90;;;;;;5137471;27;20139;-53